createdAt,value
2023-05-02T00:00:53.182Z,7.65
2023-05-02T00:03:58.172Z,8.15
2023-05-02T00:05:30.505Z,8.35
2023-05-02T00:07:03.879Z,9.02
2023-05-02T00:08:36.023Z,9.98
2023-05-02T00:10:08.727Z,9.40
2023-05-02T00:11:40.968Z,8.60
2023-05-02T00:13:13.044Z,9.18
2023-05-02T00:14:45.063Z,8.73
2023-05-02T00:16:18.648Z,10.20
2023-05-02T00:17:50.796Z,10.45
2023-05-02T00:19:22.950Z,7.60
2023-05-02T00:20:56.356Z,8.45
2023-05-02T00:24:00.986Z,8.45
2023-05-02T00:25:33.128Z,7.50
2023-05-02T00:27:05.367Z,9.10
2023-05-02T00:28:37.467Z,9.02
2023-05-02T00:30:09.903Z,8.85
2023-05-02T00:31:42.273Z,8.63
2023-05-02T00:33:15.370Z,10.10
2023-05-02T00:34:47.502Z,11.07
2023-05-02T00:36:20.618Z,9.18
2023-05-02T00:37:52.792Z,7.93
2023-05-02T00:39:25.171Z,9.65
2023-05-02T00:40:57.366Z,9.30
2023-05-02T00:42:31.990Z,9.52
2023-05-02T00:44:04.099Z,8.15
2023-05-02T00:45:36.192Z,8.60
2023-05-02T00:47:08.285Z,8.00
2023-05-02T00:48:40.365Z,7.97
2023-05-02T00:50:12.562Z,9.13
2023-05-02T00:51:44.929Z,9.05
2023-05-02T00:53:17.068Z,8.82
2023-05-02T00:54:49.285Z,8.23
2023-05-02T00:56:22.072Z,8.95
2023-05-02T00:57:54.730Z,9.13
2023-05-02T00:59:27.547Z,8.60
2023-05-02T01:01:15.368Z,8.68
2023-05-02T01:03:06.200Z,8.57
2023-05-02T01:05:08.522Z,9.65
2023-05-02T01:06:54.792Z,9.23
2023-05-02T01:08:36.378Z,8.90
2023-05-02T01:10:29.975Z,8.52
2023-05-02T01:12:20.860Z,9.45
2023-05-02T01:13:55.888Z,7.93
2023-05-02T01:15:28.088Z,8.85
2023-05-02T01:17:04.861Z,9.00
2023-05-02T01:18:39.023Z,8.68
2023-05-02T01:20:15.352Z,9.02
2023-05-02T01:21:48.345Z,10.52
2023-05-02T01:23:28.524Z,8.25
2023-05-02T01:25:28.491Z,8.50
2023-05-02T01:27:24.828Z,8.95
2023-05-02T01:29:01.545Z,8.57
2023-05-02T01:30:35.246Z,8.55
2023-05-02T01:32:08.919Z,7.78
2023-05-02T01:33:41.056Z,8.07
2023-05-02T01:35:15.927Z,8.48
2023-05-02T01:36:49.454Z,8.05
2023-05-02T01:39:56.717Z,8.20
2023-05-02T01:41:31.861Z,8.05
2023-05-02T01:43:06.362Z,8.93
2023-05-02T01:44:40.139Z,9.93
2023-05-02T01:46:14.798Z,9.57
2023-05-02T01:47:47.490Z,9.13
2023-05-02T01:49:20.020Z,8.35
2023-05-02T01:50:52.967Z,8.50
2023-05-02T01:52:25.994Z,8.77
2023-05-02T01:54:01.117Z,7.85
2023-05-02T01:55:36.117Z,9.00
2023-05-02T01:57:09.745Z,9.77
2023-05-02T01:58:41.880Z,8.55
2023-05-02T02:00:14.690Z,11.40
2023-05-02T02:01:47.288Z,8.75
2023-05-02T02:03:19.875Z,7.97
2023-05-02T02:04:52.808Z,8.53
2023-05-02T02:07:56.792Z,8.55
2023-05-02T02:09:28.925Z,7.43
2023-05-02T02:11:05.055Z,9.15
2023-05-02T02:12:45.829Z,8.18
2023-05-02T02:14:20.796Z,10.05
2023-05-02T02:15:54.559Z,9.18
2023-05-02T02:17:30.300Z,7.53
2023-05-02T02:19:08.890Z,7.95
2023-05-02T02:20:44.051Z,7.68
2023-05-02T02:22:16.666Z,8.63
2023-05-02T02:23:49.720Z,8.95
2023-05-02T02:25:22.021Z,7.53
2023-05-02T02:26:54.071Z,9.13
2023-05-02T02:28:26.160Z,8.82
2023-05-02T02:29:58.658Z,8.90
2023-05-02T02:31:35.061Z,8.23
2023-05-02T02:33:07.203Z,8.68
2023-05-02T02:34:39.356Z,8.77
2023-05-02T02:36:41.176Z,8.52
2023-05-02T02:38:38.760Z,8.32
2023-05-02T02:40:30.163Z,7.68
2023-05-02T02:42:14.256Z,8.98
2023-05-02T02:44:11.602Z,8.48
2023-05-02T02:45:53.788Z,9.40
2023-05-02T02:47:41.403Z,8.57
2023-05-02T02:49:32.059Z,8.07
2023-05-02T02:51:13.044Z,8.73
2023-05-02T02:52:45.188Z,7.40
2023-05-02T02:54:27.566Z,8.02
2023-05-02T02:56:36.456Z,8.10
2023-05-02T02:58:22.579Z,7.63
2023-05-02T03:00:11.189Z,8.73
2023-05-02T03:01:50.463Z,8.35
2023-05-02T03:03:23.695Z,10.75
2023-05-02T03:06:30.021Z,9.20
2023-05-02T03:08:02.259Z,10.23
2023-05-02T03:09:45.057Z,9.98
2023-05-02T03:11:17.440Z,8.38
2023-05-02T03:12:49.634Z,8.93
2023-05-02T03:14:21.847Z,9.55
2023-05-02T03:15:54.336Z,8.55
2023-05-02T03:17:26.708Z,9.17
2023-05-02T03:18:59.041Z,7.80
2023-05-02T03:20:31.145Z,17.30
2023-05-02T03:22:03.803Z,9.75
2023-05-02T03:23:36.078Z,7.85
2023-05-02T03:25:09.480Z,8.93
2023-05-02T03:28:14.574Z,9.45
2023-05-02T03:29:46.644Z,9.50
2023-05-02T03:31:18.899Z,9.93
2023-05-02T03:32:51.220Z,9.07
2023-05-02T03:34:23.484Z,10.63
2023-05-02T03:35:55.589Z,10.52
2023-05-02T03:37:27.734Z,9.27
2023-05-02T03:38:59.872Z,11.73
2023-05-02T03:40:31.902Z,9.57
2023-05-02T03:42:04.098Z,10.00
2023-05-02T03:43:36.236Z,10.55
2023-05-02T03:45:08.833Z,8.50
2023-05-02T03:46:40.917Z,8.70
2023-05-02T03:48:13.132Z,8.07
2023-05-02T03:49:45.243Z,7.78
2023-05-02T03:51:17.741Z,8.80
2023-05-02T03:52:49.852Z,10.15
2023-05-02T03:54:21.930Z,7.93
2023-05-02T03:55:54.767Z,9.50
2023-05-02T03:57:26.913Z,8.00
2023-05-02T03:59:01.826Z,7.63
2023-05-02T04:00:33.975Z,8.85
2023-05-02T04:02:06.277Z,10.50
2023-05-02T04:03:38.634Z,10.77
2023-05-02T04:05:10.915Z,10.05
2023-05-02T04:06:43.233Z,10.60
2023-05-02T04:08:15.389Z,12.70
2023-05-02T04:09:47.554Z,8.50
2023-05-02T04:11:19.696Z,9.07
2023-05-02T04:12:51.812Z,9.25
2023-05-02T04:14:23.919Z,8.75
2023-05-02T04:15:56.961Z,10.60
2023-05-02T04:17:29.246Z,9.75
2023-05-02T04:19:01.392Z,9.00
2023-05-02T04:20:33.660Z,11.57
2023-05-02T04:22:05.880Z,9.45
2023-05-02T04:23:38.204Z,9.82
2023-05-02T04:25:10.344Z,10.73
2023-05-02T04:26:42.486Z,9.27
2023-05-02T04:28:14.663Z,10.68
2023-05-02T04:29:50.542Z,9.65
2023-05-02T04:31:22.763Z,9.10
2023-05-02T04:32:55.309Z,9.32
2023-05-02T04:34:28.977Z,10.23
2023-05-02T04:36:01.735Z,10.93
2023-05-02T04:37:33.783Z,10.02
2023-05-02T04:39:08.216Z,10.48
2023-05-02T04:40:40.529Z,11.88
2023-05-02T04:42:12.723Z,8.85
2023-05-02T04:43:45.103Z,10.90
2023-05-02T04:45:17.298Z,10.23
2023-05-02T04:46:49.503Z,11.98
2023-05-02T04:48:22.451Z,11.60
2023-05-02T04:49:54.576Z,10.07
2023-05-02T04:51:28.366Z,11.63
2023-05-02T04:53:00.433Z,11.43
2023-05-02T04:54:36.685Z,10.20
2023-05-02T04:56:08.936Z,11.07
2023-05-02T04:57:41.064Z,9.80
2023-05-02T04:59:13.086Z,10.63
2023-05-02T05:00:45.265Z,10.73
2023-05-02T05:02:17.517Z,10.25
2023-05-02T05:03:49.748Z,10.18
2023-05-02T05:05:22.324Z,10.23
2023-05-02T05:06:55.295Z,11.02
2023-05-02T05:08:27.947Z,11.18
2023-05-02T05:10:00.273Z,10.97
2023-05-02T05:11:32.734Z,10.90
2023-05-02T05:13:05.135Z,11.50
2023-05-02T05:14:37.332Z,11.50
2023-05-02T05:16:09.702Z,12.43
2023-05-02T05:17:42.707Z,11.10
2023-05-02T05:19:17.105Z,13.27
2023-05-02T05:20:49.261Z,10.93
2023-05-02T05:22:22.887Z,12.95
2023-05-02T05:23:55.057Z,10.07
2023-05-02T05:25:28.076Z,10.77
2023-05-02T05:27:00.307Z,10.23
2023-05-02T05:28:32.340Z,10.55
2023-05-02T05:30:05.801Z,11.85
2023-05-02T05:33:10.031Z,9.82
2023-05-02T05:34:42.337Z,12.95
2023-05-02T05:36:15.463Z,9.93
2023-05-02T05:37:47.565Z,11.45
2023-05-02T05:39:19.631Z,9.88
2023-05-02T05:40:51.738Z,10.77
2023-05-02T05:42:23.826Z,9.15
2023-05-02T05:43:56.797Z,12.07
2023-05-02T05:45:28.923Z,11.20
2023-05-02T05:47:01.011Z,10.52
2023-05-02T05:48:33.332Z,10.88
2023-05-02T05:50:05.909Z,11.10
2023-05-02T05:51:37.971Z,11.07
2023-05-02T05:53:10.117Z,10.68
2023-05-02T05:54:42.222Z,12.82
2023-05-02T05:56:14.723Z,9.88
2023-05-02T05:57:46.938Z,10.47
2023-05-02T05:59:19.175Z,11.90
2023-05-02T06:00:51.317Z,10.52
2023-05-02T06:02:23.674Z,10.50
2023-05-02T06:03:56.074Z,9.63
2023-05-02T06:05:28.926Z,9.88
2023-05-02T06:07:01.140Z,10.88
2023-05-02T06:08:33.403Z,10.60
2023-05-02T06:10:05.988Z,10.63
2023-05-02T06:11:38.681Z,10.98
2023-05-02T06:13:10.744Z,8.93
2023-05-02T06:14:42.832Z,8.32
2023-05-02T06:16:15.018Z,9.80
2023-05-02T06:17:47.208Z,10.10
2023-05-02T06:19:19.421Z,10.52
2023-05-02T06:20:51.640Z,9.38
2023-05-02T06:22:23.800Z,12.57
2023-05-02T06:23:56.034Z,10.50
2023-05-02T06:25:28.120Z,9.38
2023-05-02T06:27:00.628Z,11.50
2023-05-02T06:28:32.876Z,9.53
2023-05-02T06:30:05.653Z,9.20
2023-05-02T06:31:37.810Z,9.05
2023-05-02T06:33:10.102Z,9.20
2023-05-02T06:34:42.332Z,10.07
2023-05-02T06:36:14.471Z,9.60
2023-05-02T06:37:46.650Z,9.65
2023-05-02T06:39:18.704Z,8.68
2023-05-02T06:40:51.174Z,10.27
2023-05-02T06:42:23.325Z,10.73
2023-05-02T06:43:55.414Z,9.98
2023-05-02T06:45:28.060Z,9.45
2023-05-02T06:47:00.238Z,8.50
2023-05-02T06:48:32.418Z,7.43
2023-05-02T06:50:04.679Z,8.45
2023-05-02T06:51:36.781Z,8.52
2023-05-02T06:53:08.923Z,8.43
2023-05-02T06:54:42.790Z,8.23
2023-05-02T06:56:15.029Z,8.73
2023-05-02T06:57:47.447Z,8.98
2023-05-02T06:59:19.562Z,8.15
2023-05-02T07:00:51.769Z,8.05
2023-05-02T07:02:24.139Z,7.63
2023-05-02T07:03:56.341Z,7.85
2023-05-02T07:05:29.608Z,9.23
2023-05-02T07:07:01.790Z,9.05
2023-05-02T07:08:33.969Z,9.00
2023-05-02T07:10:06.529Z,8.73
2023-05-02T07:11:38.589Z,8.90
2023-05-02T07:13:10.701Z,8.35
2023-05-02T07:14:42.896Z,7.90
2023-05-02T07:16:15.337Z,8.48
2023-05-02T07:17:48.243Z,7.90
2023-05-02T07:19:20.381Z,8.32
2023-05-02T07:20:52.570Z,7.80
2023-05-02T07:22:24.757Z,8.70
2023-05-02T07:23:58.031Z,7.20
2023-05-02T07:25:30.201Z,9.57
2023-05-02T07:27:03.713Z,9.35
2023-05-02T07:28:35.915Z,10.93
2023-05-02T07:30:08.860Z,9.30
2023-05-02T07:31:41.211Z,8.27
2023-05-02T07:33:15.193Z,7.60
2023-05-02T07:34:47.406Z,6.65
2023-05-02T07:36:19.500Z,6.47
2023-05-02T07:37:51.666Z,8.30
2023-05-02T07:39:24.822Z,7.35
2023-05-02T07:41:00.512Z,7.47
2023-05-02T07:42:35.412Z,7.07
2023-05-02T07:44:07.747Z,7.50
2023-05-02T07:45:40.046Z,7.10
2023-05-02T07:47:12.179Z,6.93
2023-05-02T07:48:44.406Z,6.72
2023-05-02T07:50:16.612Z,6.38
2023-05-02T07:51:48.806Z,7.78
2023-05-02T07:53:20.913Z,7.65
2023-05-02T07:54:53.156Z,5.68
2023-05-02T07:56:26.262Z,7.45
2023-05-02T07:57:58.449Z,5.32
2023-05-02T07:59:31.907Z,6.53
2023-05-02T08:01:04.411Z,6.03
2023-05-02T08:02:37.600Z,7.47
2023-05-02T08:04:13.590Z,7.05
2023-05-02T08:05:46.029Z,5.68
2023-05-02T08:07:18.286Z,6.50
2023-05-02T08:08:50.420Z,7.30
2023-05-02T08:10:23.771Z,7.10
2023-05-02T08:11:56.102Z,6.13
2023-05-02T08:13:28.843Z,6.57
2023-05-02T08:15:05.645Z,6.90
2023-05-02T08:16:37.844Z,6.38
2023-05-02T08:18:10.090Z,6.22
2023-05-02T08:19:42.336Z,7.22
2023-05-02T08:21:14.598Z,5.55
2023-05-02T08:22:46.766Z,9.98
2023-05-02T08:24:18.861Z,7.82
2023-05-02T08:25:50.991Z,6.35
2023-05-02T08:27:23.068Z,6.50
2023-05-02T08:28:55.957Z,7.05
2023-05-02T08:30:28.131Z,5.53
2023-05-02T08:32:00.424Z,7.13
2023-05-02T08:33:32.759Z,7.47
2023-05-02T08:35:05.142Z,5.25
2023-05-02T08:36:37.839Z,4.53
2023-05-02T08:38:10.234Z,5.50
2023-05-02T08:39:42.425Z,5.57
2023-05-02T08:41:17.473Z,6.57
2023-05-02T08:42:49.648Z,6.10
2023-05-02T08:44:21.933Z,7.30
2023-05-02T08:45:54.985Z,5.93
2023-05-02T08:47:28.030Z,4.75
2023-05-02T08:49:00.692Z,6.18
2023-05-02T08:50:36.550Z,6.28
2023-05-02T08:52:11.458Z,6.78
2023-05-02T08:53:44.615Z,4.95
2023-05-02T08:56:48.861Z,8.57
2023-05-02T08:58:20.974Z,4.88
2023-05-02T08:59:53.320Z,7.00
2023-05-02T09:01:31.202Z,4.70
2023-05-02T09:03:27.901Z,6.03
2023-05-02T09:05:04.470Z,4.20
2023-05-02T09:06:37.050Z,5.57
2023-05-02T09:08:09.662Z,6.03
2023-05-02T09:09:41.763Z,6.43
2023-05-02T09:11:15.210Z,4.90
2023-05-02T09:12:47.606Z,4.57
2023-05-02T09:14:19.840Z,4.25
2023-05-02T09:16:00.180Z,3.92
2023-05-02T09:17:40.825Z,7.50
2023-05-02T09:19:25.126Z,6.20
2023-05-02T09:22:52.695Z,5.38
2023-05-02T09:24:25.819Z,5.32
2023-05-02T09:25:57.893Z,4.53
2023-05-02T09:27:30.004Z,5.10
2023-05-02T09:29:04.331Z,4.50
2023-05-02T09:30:36.765Z,4.22
2023-05-02T09:32:09.067Z,7.60
2023-05-02T09:33:41.934Z,4.57
2023-05-02T09:35:14.796Z,5.18
2023-05-02T09:36:51.700Z,4.55
2023-05-02T09:38:23.794Z,6.30
2023-05-02T09:40:16.335Z,4.57
2023-05-02T09:41:49.378Z,4.18
2023-05-02T09:43:21.492Z,4.68
2023-05-02T09:44:53.948Z,5.03
2023-05-02T09:46:26.208Z,5.28
2023-05-02T09:48:02.709Z,5.05
2023-05-02T09:49:45.889Z,4.47
2023-05-02T09:53:04.237Z,3.97
2023-05-02T09:54:39.280Z,3.95
2023-05-02T09:56:11.771Z,5.10
2023-05-02T09:57:44.038Z,4.97
2023-05-02T09:59:16.979Z,4.63
2023-05-02T10:00:51.637Z,8.57
2023-05-02T10:02:25.364Z,4.78
2023-05-02T10:03:57.629Z,4.75
2023-05-02T10:05:30.309Z,6.78
2023-05-02T10:07:03.580Z,5.00
2023-05-02T10:08:36.102Z,4.45
2023-05-02T10:10:09.908Z,5.07
2023-05-02T10:11:45.166Z,6.03
2023-05-02T10:13:24.792Z,3.58
2023-05-02T10:15:01.614Z,3.97
2023-05-02T10:16:35.782Z,3.92
2023-05-02T10:18:16.362Z,4.90
2023-05-02T10:20:08.849Z,3.63
2023-05-02T10:21:41.064Z,7.00
2023-05-02T10:23:13.684Z,4.88
2023-05-02T10:24:47.526Z,5.68
2023-05-02T10:26:22.399Z,5.00
2023-05-02T10:27:57.821Z,4.10
2023-05-02T10:29:30.585Z,5.35
2023-05-02T10:31:03.607Z,5.85
2023-05-02T10:32:37.383Z,6.55
2023-05-02T10:34:12.238Z,4.57
2023-05-02T10:35:47.690Z,5.05
2023-05-02T10:37:20.366Z,6.75
2023-05-02T10:38:53.120Z,4.30
2023-05-02T10:40:25.315Z,5.63
2023-05-02T10:41:59.036Z,4.53
2023-05-02T10:43:35.785Z,5.53
2023-05-02T10:45:30.350Z,5.60
2023-05-02T10:47:03.724Z,6.88
2023-05-02T10:48:36.123Z,4.57
2023-05-02T10:50:09.048Z,6.47
2023-05-02T10:51:42.860Z,4.20
2023-05-02T10:53:36.917Z,6.90
2023-05-02T10:57:08.985Z,4.65
2023-05-02T10:58:42.315Z,5.00
2023-05-02T11:00:23.786Z,4.82
2023-05-02T11:01:58.837Z,5.60
2023-05-02T11:03:58.973Z,5.03
2023-05-02T11:05:31.194Z,5.03
2023-05-02T11:07:06.213Z,5.47
2023-05-02T11:08:38.511Z,4.57
2023-05-02T11:10:20.828Z,4.10
2023-05-02T11:11:54.651Z,4.80
2023-05-02T11:13:51.756Z,6.15
2023-05-02T11:15:29.699Z,4.35
2023-05-02T11:17:01.863Z,4.90
2023-05-02T11:19:01.493Z,7.32
2023-05-02T11:20:37.695Z,5.50
2023-05-02T11:22:19.460Z,6.10
2023-05-02T11:23:51.521Z,4.43
2023-05-02T11:25:37.833Z,4.47
2023-05-02T11:27:31.589Z,4.57
2023-05-02T11:29:03.703Z,4.32
2023-05-02T11:30:44.357Z,6.20
2023-05-02T11:32:16.540Z,4.47
2023-05-02T11:33:59.440Z,4.70
2023-05-02T11:35:32.354Z,6.22
2023-05-02T11:37:15.245Z,5.35
2023-05-02T11:38:47.386Z,5.55
2023-05-02T11:40:19.784Z,4.35
2023-05-02T11:41:52.027Z,4.60
2023-05-02T11:43:26.854Z,3.55
2023-05-02T11:45:01.590Z,3.55
2023-05-02T11:46:34.438Z,6.78
2023-05-02T11:48:07.759Z,4.93
2023-05-02T11:49:40.123Z,4.72
2023-05-02T11:51:12.268Z,6.80
2023-05-02T11:52:45.427Z,5.57
2023-05-02T11:55:57.306Z,6.38
2023-05-02T11:57:29.470Z,4.57
2023-05-02T11:59:03.633Z,3.50
2023-05-02T12:00:37.149Z,3.80
2023-05-02T12:02:09.617Z,4.32
2023-05-02T12:03:42.082Z,3.72
2023-05-02T12:05:15.323Z,4.45
2023-05-02T12:08:30.293Z,4.90
2023-05-02T12:10:02.391Z,5.60
2023-05-02T12:11:35.304Z,3.42
2023-05-02T12:13:08.834Z,4.78
2023-05-02T12:14:42.087Z,4.43
2023-05-02T12:16:14.719Z,3.95
2023-05-02T12:17:51.671Z,4.13
2023-05-02T12:19:26.837Z,3.63
2023-05-02T12:20:59.139Z,4.88
2023-05-02T12:22:31.675Z,3.47
2023-05-02T12:24:04.286Z,3.45
2023-05-02T12:25:43.161Z,4.28
2023-05-02T12:27:16.077Z,4.93
2023-05-02T12:28:55.166Z,5.07
2023-05-02T12:30:31.440Z,4.18
2023-05-02T12:32:03.916Z,3.28
2023-05-02T12:33:48.547Z,6.13
2023-05-02T12:35:23.552Z,5.85
2023-05-02T12:36:55.637Z,3.83
2023-05-02T12:38:27.801Z,3.95
2023-05-02T12:40:00.154Z,4.95
2023-05-02T12:41:36.342Z,5.10
2023-05-02T12:43:11.037Z,3.95
2023-05-02T12:44:45.159Z,5.10
2023-05-02T12:46:17.859Z,4.07
2023-05-02T12:47:50.026Z,2.78
2023-05-02T12:49:22.197Z,4.47
2023-05-02T12:50:55.797Z,3.75
2023-05-02T12:52:51.151Z,3.28
2023-05-02T12:54:23.340Z,3.05
2023-05-02T12:56:05.198Z,4.15
2023-05-02T12:57:37.381Z,2.58
2023-05-02T12:59:10.577Z,3.63
2023-05-02T13:02:17.738Z,2.85
2023-05-02T13:04:06.240Z,2.80
2023-05-02T13:05:38.590Z,4.03
2023-05-02T13:07:11.349Z,5.97
2023-05-02T13:08:43.428Z,4.18
2023-05-02T13:10:18.342Z,4.78
2023-05-02T13:11:50.688Z,3.85
2023-05-02T13:13:22.952Z,2.45
2023-05-02T13:14:55.164Z,3.03
2023-05-02T13:16:27.572Z,5.43
2023-05-02T13:18:00.047Z,3.45
2023-05-02T13:19:32.339Z,4.22
2023-05-02T13:21:05.444Z,4.03
2023-05-02T13:24:10.111Z,2.92
2023-05-02T13:25:42.500Z,4.30
2023-05-02T13:27:14.779Z,5.18
2023-05-02T13:28:46.837Z,3.03
2023-05-02T13:30:19.120Z,3.58
2023-05-02T13:31:51.384Z,3.13
2023-05-02T13:33:30.950Z,2.77
2023-05-02T13:35:04.312Z,4.38
2023-05-02T13:36:41.045Z,2.60
2023-05-02T13:38:13.288Z,4.10
2023-05-02T13:39:45.448Z,2.57
2023-05-02T13:41:17.607Z,3.92
2023-05-02T13:42:49.757Z,4.57
2023-05-02T13:44:21.996Z,3.92
2023-05-02T13:45:54.057Z,4.13
2023-05-02T13:47:26.956Z,2.60
2023-05-02T13:48:59.079Z,4.18
2023-05-02T13:50:31.253Z,3.17
2023-05-02T13:52:03.388Z,3.22
2023-05-02T13:53:36.102Z,2.15
2023-05-02T13:55:08.631Z,5.10
2023-05-02T13:56:40.835Z,2.40
2023-05-02T13:58:12.899Z,4.40
2023-05-02T13:59:47.717Z,2.72
2023-05-02T14:01:19.973Z,2.72
2023-05-02T14:02:53.295Z,5.30
2023-05-02T14:04:25.717Z,3.17
2023-05-02T14:05:57.862Z,3.40
2023-05-02T14:07:30.068Z,3.30
2023-05-02T14:09:02.309Z,3.33
2023-05-02T14:10:34.543Z,1.90
2023-05-02T14:12:06.933Z,3.97
2023-05-02T14:13:38.998Z,2.95
2023-05-02T14:15:11.741Z,2.88
2023-05-02T14:16:44.053Z,2.53
2023-05-02T14:18:17.286Z,3.90
2023-05-02T14:21:21.746Z,1.67
2023-05-02T14:22:53.916Z,2.77
2023-05-02T14:24:26.096Z,2.95
2023-05-02T14:25:58.591Z,2.65
2023-05-02T14:27:30.835Z,2.97
2023-05-02T14:29:02.964Z,2.03
2023-05-02T14:30:35.255Z,2.88
2023-05-02T14:32:07.363Z,3.85
2023-05-02T14:33:39.674Z,3.67
2023-05-02T14:35:11.883Z,3.07
2023-05-02T14:36:44.012Z,2.80
2023-05-02T14:38:16.031Z,2.95
2023-05-02T14:39:52.146Z,1.77
2023-05-02T14:41:27.253Z,3.88
2023-05-02T14:42:59.448Z,3.17
2023-05-02T14:44:31.737Z,6.35
2023-05-02T14:46:04.422Z,3.30
2023-05-02T14:47:36.906Z,5.15
2023-05-02T14:49:09.386Z,6.88
2023-05-02T14:50:41.625Z,3.88
2023-05-02T14:52:13.715Z,3.47
2023-05-02T14:53:48.834Z,3.35
2023-05-02T14:55:21.034Z,2.88
2023-05-02T14:56:57.001Z,3.38
2023-05-02T14:58:29.434Z,2.97
2023-05-02T15:00:01.815Z,4.32
2023-05-02T15:01:34.277Z,2.85
2023-05-02T15:03:08.222Z,4.00
2023-05-02T15:04:40.681Z,5.32
2023-05-02T15:06:13.153Z,5.75
2023-05-02T15:07:45.418Z,2.80
2023-05-02T15:09:18.468Z,4.82
2023-05-02T15:10:52.844Z,2.92
2023-05-02T15:12:26.643Z,4.13
2023-05-02T15:13:59.437Z,3.92
2023-05-02T15:15:31.812Z,4.32
2023-05-02T15:17:04.037Z,3.03
2023-05-02T15:18:36.369Z,2.60
2023-05-02T15:20:09.205Z,3.38
2023-05-02T15:21:41.468Z,3.78
2023-05-02T15:23:13.745Z,4.30
2023-05-02T15:24:45.917Z,4.40
2023-05-02T15:26:18.135Z,3.90
2023-05-02T15:27:50.721Z,4.53
2023-05-02T15:29:22.808Z,3.78
2023-05-02T15:30:54.891Z,5.00
2023-05-02T15:32:27.125Z,4.13
2023-05-02T15:33:59.336Z,3.73
2023-05-02T15:35:31.947Z,4.57
2023-05-02T15:38:39.800Z,4.65
2023-05-02T15:40:12.537Z,5.22
2023-05-02T15:41:48.143Z,4.18
2023-05-02T15:43:20.266Z,3.25
2023-05-02T15:44:54.444Z,6.47
2023-05-02T15:46:27.114Z,3.50
2023-05-02T15:47:59.307Z,4.50
2023-05-02T15:49:33.793Z,4.57
2023-05-02T15:51:06.968Z,3.92
2023-05-02T15:52:39.081Z,3.92
2023-05-02T15:54:11.265Z,6.55
2023-05-02T15:55:46.268Z,3.45
2023-05-02T15:57:19.647Z,4.95
2023-05-02T15:58:51.686Z,4.50
2023-05-02T16:00:23.888Z,3.58
2023-05-02T16:01:56.354Z,5.15
2023-05-02T16:03:28.710Z,5.00
2023-05-02T16:05:00.873Z,3.60
2023-05-02T16:06:34.489Z,3.55
2023-05-02T16:08:06.732Z,5.63
2023-05-02T16:09:40.080Z,5.68
2023-05-02T16:11:12.196Z,3.28
2023-05-02T16:12:44.381Z,5.03
2023-05-02T16:14:16.751Z,6.63
2023-05-02T16:15:48.960Z,3.63
2023-05-02T16:17:21.404Z,6.18
2023-05-02T16:18:53.656Z,3.58
2023-05-02T16:20:26.265Z,4.32
2023-05-02T16:21:58.505Z,3.15
2023-05-02T16:23:30.742Z,2.90
2023-05-02T16:25:03.055Z,5.10
2023-05-02T16:26:35.590Z,3.57
2023-05-02T16:28:07.886Z,3.95
2023-05-02T16:29:40.267Z,6.43
2023-05-02T16:31:14.683Z,3.37
2023-05-02T16:32:46.818Z,4.18
2023-05-02T16:34:19.037Z,3.00
2023-05-02T16:36:01.400Z,4.45
2023-05-02T16:37:36.853Z,3.88
2023-05-02T16:39:10.914Z,5.57
2023-05-02T16:40:43.128Z,4.10
2023-05-02T16:42:15.379Z,4.50
2023-05-02T16:43:48.711Z,4.95
2023-05-02T16:45:21.322Z,2.63
2023-05-02T16:46:53.655Z,2.58
2023-05-02T16:48:25.744Z,3.10
2023-05-02T16:49:58.741Z,4.30
2023-05-02T16:51:32.231Z,3.67
2023-05-02T16:53:04.315Z,5.80
2023-05-02T16:54:36.453Z,4.18
2023-05-02T16:56:09.181Z,4.60
2023-05-02T16:57:41.759Z,4.13
2023-05-02T16:59:13.885Z,7.22
2023-05-02T17:00:46.459Z,7.97
2023-05-02T17:02:22.502Z,3.80
2023-05-02T17:03:54.742Z,4.53
2023-05-02T17:05:27.140Z,4.25
2023-05-02T17:06:59.208Z,4.45
2023-05-02T17:08:31.322Z,4.40
2023-05-02T17:10:04.826Z,4.53
2023-05-02T17:11:37.280Z,4.68
2023-05-02T17:13:09.383Z,5.72
2023-05-02T17:14:43.122Z,7.38
2023-05-02T17:16:15.855Z,7.13
2023-05-02T17:17:47.992Z,4.30
2023-05-02T17:19:20.351Z,6.40
2023-05-02T17:20:53.226Z,6.67
2023-05-02T17:22:25.525Z,5.13
2023-05-02T17:23:57.844Z,4.23
2023-05-02T17:25:31.031Z,4.80
2023-05-02T17:27:03.273Z,5.57
2023-05-02T17:28:35.588Z,5.18
2023-05-02T17:30:08.476Z,6.18
2023-05-02T17:31:40.730Z,8.07
2023-05-02T17:33:13.219Z,6.93
2023-05-02T17:34:47.539Z,3.92
2023-05-02T17:36:19.619Z,3.85
2023-05-02T17:37:51.775Z,5.68
2023-05-02T17:39:23.967Z,5.32
2023-05-02T17:40:56.104Z,5.05
2023-05-02T17:42:28.308Z,5.55
2023-05-02T17:44:00.503Z,8.50
2023-05-02T17:47:03.775Z,7.03
2023-05-02T17:48:39.913Z,4.70
2023-05-02T17:50:12.112Z,5.45
2023-05-02T17:51:44.262Z,6.93
2023-05-02T17:53:16.385Z,6.68
2023-05-02T17:54:48.456Z,9.20
2023-05-02T17:56:20.716Z,10.30
2023-05-02T17:57:52.811Z,8.75
2023-05-02T17:59:24.973Z,8.77
2023-05-02T18:00:57.323Z,8.65
2023-05-02T18:02:29.591Z,7.82
2023-05-02T18:04:04.384Z,7.45
2023-05-02T18:05:40.453Z,6.03
2023-05-02T18:07:12.602Z,8.38
2023-05-02T18:08:45.363Z,5.55
2023-05-02T18:10:17.539Z,4.70
2023-05-02T18:11:49.645Z,6.70
2023-05-02T18:13:21.791Z,5.95
2023-05-02T18:16:29.051Z,5.40
2023-05-02T18:18:01.259Z,5.05
2023-05-02T18:19:34.215Z,5.75
2023-05-02T18:21:09.982Z,4.20
2023-05-02T18:22:42.648Z,6.18
2023-05-02T18:24:14.814Z,5.13
2023-05-02T18:25:47.069Z,4.20
2023-05-02T18:27:19.248Z,4.13
2023-05-02T18:28:55.937Z,4.47
2023-05-02T18:30:28.245Z,6.97
2023-05-02T18:32:00.692Z,3.92
2023-05-02T18:33:32.898Z,4.18
2023-05-02T18:35:10.725Z,4.88
2023-05-02T18:36:45.411Z,4.90
2023-05-02T18:38:17.899Z,5.53
2023-05-02T18:39:50.078Z,4.40
2023-05-02T18:41:22.776Z,4.35
2023-05-02T18:42:54.881Z,4.35
2023-05-02T18:44:27.142Z,4.85
2023-05-02T19:20:31.361Z,9.80
2023-05-02T19:22:04.161Z,6.90
2023-05-02T19:23:36.243Z,7.18
2023-05-02T19:25:09.993Z,5.20
2023-05-02T19:26:42.325Z,4.70
2023-05-02T19:28:16.133Z,5.20
2023-05-02T19:29:48.219Z,4.95
2023-05-02T19:31:20.922Z,5.95
2023-05-02T19:32:53.241Z,5.30
2023-05-02T19:34:25.411Z,7.50
2023-05-02T19:35:58.898Z,8.82
2023-05-02T19:37:31.169Z,6.50
2023-05-02T19:39:04.670Z,5.90
2023-05-02T19:40:36.807Z,6.38
2023-05-02T19:42:09.859Z,4.88
2023-05-02T19:43:42.016Z,8.25
2023-05-02T19:45:14.333Z,9.77
2023-05-02T19:46:46.561Z,8.95
2023-05-02T19:48:18.781Z,8.82
2023-05-02T19:49:51.643Z,9.45
2023-05-02T19:51:26.054Z,10.95
2023-05-02T19:53:02.089Z,7.43
2023-05-02T19:54:34.363Z,9.07
2023-05-02T19:56:09.801Z,7.65
2023-05-02T19:57:44.677Z,8.07
2023-05-02T19:59:16.810Z,6.70
2023-05-02T20:00:50.447Z,7.00
2023-05-02T20:02:22.790Z,7.03
2023-05-02T20:03:55.896Z,5.93
2023-05-02T20:05:28.106Z,7.13
2023-05-02T20:07:00.187Z,5.72
2023-05-02T20:08:32.328Z,6.70
2023-05-02T20:10:05.060Z,7.63
2023-05-02T20:11:37.485Z,6.10
2023-05-02T20:13:10.564Z,6.63
2023-05-02T20:14:42.744Z,5.13
2023-05-02T20:16:15.201Z,5.60
2023-05-02T20:17:47.945Z,5.97
2023-05-02T20:19:21.951Z,7.13
2023-05-02T20:20:54.761Z,6.95
2023-05-02T20:22:26.922Z,6.95
2023-05-02T20:23:59.066Z,6.95
2023-05-02T20:25:31.176Z,6.90
2023-05-02T20:27:03.335Z,9.95
2023-05-02T20:28:35.510Z,6.82
2023-05-02T20:30:09.126Z,7.80
2023-05-02T20:31:41.655Z,7.07
2023-05-02T20:33:16.248Z,7.17
2023-05-02T20:34:49.029Z,7.50
2023-05-02T20:36:21.383Z,5.93
2023-05-02T20:37:54.309Z,6.18
2023-05-02T20:39:26.360Z,7.43
2023-05-02T20:40:58.504Z,7.15
2023-05-02T20:42:30.629Z,6.57
2023-05-02T20:44:04.302Z,7.80
2023-05-02T20:45:36.412Z,7.35
2023-05-02T20:47:08.583Z,8.32
2023-05-02T20:48:40.674Z,6.15
2023-05-02T20:50:12.747Z,6.93
2023-05-02T20:51:44.867Z,7.32
2023-05-02T20:53:17.345Z,5.65
2023-05-02T20:54:49.828Z,5.20
2023-05-02T20:56:21.973Z,5.87
2023-05-02T20:57:54.116Z,8.43
2023-05-02T20:59:26.355Z,6.78
2023-05-02T21:00:58.709Z,7.28
2023-05-02T21:02:31.339Z,8.00
2023-05-02T21:04:04.614Z,7.53
2023-05-02T21:05:37.020Z,6.95
2023-05-02T21:07:09.155Z,6.75
2023-05-02T21:08:41.264Z,7.60
2023-05-02T21:10:13.912Z,6.38
2023-05-02T21:11:46.478Z,6.88
2023-05-02T21:13:18.692Z,6.10
2023-05-02T21:14:51.140Z,6.00
2023-05-02T21:16:23.357Z,5.97
2023-05-02T21:18:02.419Z,6.68
2023-05-02T21:19:35.177Z,7.18
2023-05-02T21:21:07.415Z,5.75
2023-05-02T21:22:39.628Z,6.05
2023-05-02T21:24:11.760Z,9.02
2023-05-02T21:25:43.927Z,5.90
2023-05-02T21:27:16.578Z,5.07
2023-05-02T21:28:48.953Z,6.53
2023-05-02T21:30:21.132Z,5.50
2023-05-02T21:31:54.766Z,6.70
2023-05-02T21:33:27.132Z,5.13
2023-05-02T21:34:59.483Z,6.18
2023-05-02T21:36:31.791Z,6.13
2023-05-02T21:38:04.562Z,6.78
2023-05-02T21:39:36.667Z,6.40
2023-05-02T21:41:09.435Z,6.82
2023-05-02T21:42:41.635Z,6.05
2023-05-02T21:44:14.725Z,6.82
2023-05-02T21:45:47.530Z,6.85
2023-05-02T21:47:21.624Z,6.88
2023-05-02T21:48:53.715Z,9.00
2023-05-02T21:50:25.807Z,6.43